sensor_id;sensor_type;location;lat;lon;timestamp;temperature;humidity
18291;DHT22;9271;48.590;8.866;2022-11-12T00:01:06;8.60;99.90
18291;DHT22;9271;48.590;8.866;2022-11-12T00:03:33;8.50;99.90
18291;DHT22;9271;48.590;8.866;2022-11-12T00:06:00;8.60;99.90
18291;DHT22;9271;48.590;8.866;2022-11-12T00:08:26;8.70;99.90
18291;DHT22;9271;48.590;8.866;2022-11-12T00:10:53;8.60;99.90
18291;DHT22;9271;48.590;8.866;2022-11-12T00:13:20;8.00;99.90
18291;DHT22;9271;48.590;8.866;2022-11-12T00:15:48;7.90;99.90
18291;DHT22;9271;48.590;8.866;2022-11-12T00:18:15;7.90;99.90
18291;DHT22;9271;48.590;8.866;2022-11-12T00:20:41;7.60;99.90
18291;DHT22;9271;48.590;8.866;2022-11-12T00:23:09;7.30;99.90
18291;DHT22;9271;48.590;8.866;2022-11-12T00:25:35;7.60;99.90
18291;DHT22;9271;48.590;8.866;2022-11-12T00:28:03;7.80;99.90
18291;DHT22;9271;48.590;8.866;2022-11-12T00:30:30;7.80;99.90
18291;DHT22;9271;48.590;8.866;2022-11-12T00:33:00;7.70;99.90
18291;DHT22;9271;48.590;8.866;2022-11-12T00:35:28;7.60;99.90
18291;DHT22;9271;48.590;8.866;2022-11-12T00:37:55;7.30;99.90
18291;DHT22;9271;48.590;8.866;2022-11-12T00:40:22;7.10;99.90
18291;DHT22;9271;48.590;8.866;2022-11-12T00:42:49;7.00;99.90
18291;DHT22;9271;48.590;8.866;2022-11-12T00:45:16;6.80;99.90
18291;DHT22;9271;48.590;8.866;2022-11-12T00:47:43;7.10;99.90
18291;DHT22;9271;48.590;8.866;2022-11-12T00:50:11;7.00;99.90
18291;DHT22;9271;48.590;8.866;2022-11-12T00:52:39;6.90;99.90
18291;DHT22;9271;48.590;8.866;2022-11-12T00:55:06;7.00;99.90
18291;DHT22;9271;48.590;8.866;2022-11-12T00:57:33;7.20;99.90
18291;DHT22;9271;48.590;8.866;2022-11-12T00:59:59;7.10;99.90
18291;DHT22;9271;48.590;8.866;2022-11-12T01:02:26;7.10;99.90
18291;DHT22;9271;48.590;8.866;2022-11-12T01:04:53;7.40;99.90
18291;DHT22;9271;48.590;8.866;2022-11-12T01:07:21;7.50;99.90
18291;DHT22;9271;48.590;8.866;2022-11-12T01:09:47;7.40;99.90
18291;DHT22;9271;48.590;8.866;2022-11-12T01:12:14;7.50;99.90
18291;DHT22;9271;48.590;8.866;2022-11-12T01:14:41;7.80;99.90
18291;DHT22;9271;48.590;8.866;2022-11-12T01:17:07;7.80;99.90
18291;DHT22;9271;48.590;8.866;2022-11-12T01:19:35;7.70;99.90
18291;DHT22;9271;48.590;8.866;2022-11-12T01:22:01;7.50;99.90
18291;DHT22;9271;48.590;8.866;2022-11-12T01:24:29;7.80;99.90
18291;DHT22;9271;48.590;8.866;2022-11-12T01:26:56;8.00;99.90
18291;DHT22;9271;48.590;8.866;2022-11-12T01:29:23;7.60;99.90
18291;DHT22;9271;48.590;8.866;2022-11-12T01:31:50;7.50;99.90
18291;DHT22;9271;48.590;8.866;2022-11-12T01:34:16;7.40;99.90
18291;DHT22;9271;48.590;8.866;2022-11-12T01:36:43;7.50;99.90
18291;DHT22;9271;48.590;8.866;2022-11-12T01:39:10;7.60;99.90
18291;DHT22;9271;48.590;8.866;2022-11-12T01:41:39;8.10;99.90
18291;DHT22;9271;48.590;8.866;2022-11-12T01:44:11;7.90;99.90
18291;DHT22;9271;48.590;8.866;2022-11-12T01:46:45;7.90;99.90
18291;DHT22;9271;48.590;8.866;2022-11-12T01:49:19;7.50;99.90
18291;DHT22;9271;48.590;8.866;2022-11-12T01:51:49;7.40;99.90
18291;DHT22;9271;48.590;8.866;2022-11-12T01:54:19;7.10;99.90
18291;DHT22;9271;48.590;8.866;2022-11-12T01:56:49;7.00;99.90
18291;DHT22;9271;48.590;8.866;2022-11-12T01:59:20;7.00;99.90
18291;DHT22;9271;48.590;8.866;2022-11-12T02:01:48;7.20;99.90
18291;DHT22;9271;48.590;8.866;2022-11-12T02:04:15;7.40;99.90
18291;DHT22;9271;48.590;8.866;2022-11-12T02:06:43;7.60;99.90
18291;DHT22;9271;48.590;8.866;2022-11-12T02:09:10;7.70;99.90
18291;DHT22;9271;48.590;8.866;2022-11-12T02:11:38;7.60;99.90
18291;DHT22;9271;48.590;8.866;2022-11-12T02:14:07;7.40;99.90
18291;DHT22;9271;48.590;8.866;2022-11-12T02:16:35;7.60;99.90
18291;DHT22;9271;48.590;8.866;2022-11-12T02:19:04;7.60;99.90
18291;DHT22;9271;48.590;8.866;2022-11-12T02:21:33;7.50;99.90
18291;DHT22;9271;48.590;8.866;2022-11-12T02:24:01;7.50;99.90
18291;DHT22;9271;48.590;8.866;2022-11-12T02:26:30;7.40;99.90
18291;DHT22;9271;48.590;8.866;2022-11-12T02:28:58;7.40;99.90
18291;DHT22;9271;48.590;8.866;2022-11-12T02:31:24;7.50;99.90
18291;DHT22;9271;48.590;8.866;2022-11-12T02:33:51;7.50;99.90
18291;DHT22;9271;48.590;8.866;2022-11-12T02:36:18;7.40;99.90
18291;DHT22;9271;48.590;8.866;2022-11-12T02:38:46;7.20;99.90
18291;DHT22;9271;48.590;8.866;2022-11-12T02:41:13;7.20;99.90
18291;DHT22;9271;48.590;8.866;2022-11-12T02:43:40;6.60;99.90
18291;DHT22;9271;48.590;8.866;2022-11-12T02:46:07;6.30;99.90
18291;DHT22;9271;48.590;8.866;2022-11-12T02:48:33;6.10;99.90
18291;DHT22;9271;48.590;8.866;2022-11-12T02:51:00;6.30;99.90
18291;DHT22;9271;48.590;8.866;2022-11-12T02:53:27;6.20;99.90
18291;DHT22;9271;48.590;8.866;2022-11-12T02:55:55;6.40;99.90
18291;DHT22;9271;48.590;8.866;2022-11-12T02:58:22;6.40;99.90
18291;DHT22;9271;48.590;8.866;2022-11-12T03:00:49;6.10;99.90
18291;DHT22;9271;48.590;8.866;2022-11-12T03:03:16;6.20;99.90
18291;DHT22;9271;48.590;8.866;2022-11-12T03:05:44;6.10;99.90
18291;DHT22;9271;48.590;8.866;2022-11-12T03:08:11;6.00;99.90
18291;DHT22;9271;48.590;8.866;2022-11-12T03:10:38;5.70;99.90
18291;DHT22;9271;48.590;8.866;2022-11-12T03:13:06;5.30;99.90
18291;DHT22;9271;48.590;8.866;2022-11-12T03:15:33;5.40;99.90
18291;DHT22;9271;48.590;8.866;2022-11-12T03:18:00;5.60;99.90
18291;DHT22;9271;48.590;8.866;2022-11-12T03:20:27;5.40;99.90
18291;DHT22;9271;48.590;8.866;2022-11-12T03:22:55;5.70;99.90
18291;DHT22;9271;48.590;8.866;2022-11-12T03:25:23;6.00;99.90
18291;DHT22;9271;48.590;8.866;2022-11-12T03:27:56;6.30;99.90
18291;DHT22;9271;48.590;8.866;2022-11-12T03:30:26;6.30;99.90
18291;DHT22;9271;48.590;8.866;2022-11-12T03:32:53;6.50;99.90
18291;DHT22;9271;48.590;8.866;2022-11-12T03:35:19;6.60;99.90
18291;DHT22;9271;48.590;8.866;2022-11-12T03:37:46;6.80;99.90
18291;DHT22;9271;48.590;8.866;2022-11-12T03:40:13;6.90;99.90
18291;DHT22;9271;48.590;8.866;2022-11-12T03:42:44;6.80;99.90
18291;DHT22;9271;48.590;8.866;2022-11-12T03:45:11;6.70;99.90
18291;DHT22;9271;48.590;8.866;2022-11-12T03:47:41;6.50;99.90
18291;DHT22;9271;48.590;8.866;2022-11-12T03:50:08;6.50;99.90
18291;DHT22;9271;48.590;8.866;2022-11-12T03:52:36;6.60;99.90
18291;DHT22;9271;48.590;8.866;2022-11-12T03:55:03;6.50;99.90
18291;DHT22;9271;48.590;8.866;2022-11-12T03:57:30;6.40;99.90
18291;DHT22;9271;48.590;8.866;2022-11-12T03:59:57;6.40;99.90
18291;DHT22;9271;48.590;8.866;2022-11-12T04:02:23;6.40;99.90
18291;DHT22;9271;48.590;8.866;2022-11-12T04:04:52;6.30;99.90
18291;DHT22;9271;48.590;8.866;2022-11-12T04:07:36;6.30;99.90
18291;DHT22;9271;48.590;8.866;2022-11-12T04:10:20;6.40;99.90
18291;DHT22;9271;48.590;8.866;2022-11-12T04:12:46;6.30;99.90
18291;DHT22;9271;48.590;8.866;2022-11-12T04:15:31;6.20;99.90
18291;DHT22;9271;48.590;8.866;2022-11-12T04:17:58;6.30;99.90
18291;DHT22;9271;48.590;8.866;2022-11-12T04:20:44;6.40;99.90
18291;DHT22;9271;48.590;8.866;2022-11-12T04:23:28;6.20;99.90
18291;DHT22;9271;48.590;8.866;2022-11-12T04:25:55;6.30;99.90
18291;DHT22;9271;48.590;8.866;2022-11-12T04:28:39;6.50;99.90
18291;DHT22;9271;48.590;8.866;2022-11-12T04:31:26;6.60;99.90
18291;DHT22;9271;48.590;8.866;2022-11-12T04:33:51;6.80;99.90
18291;DHT22;9271;48.590;8.866;2022-11-12T04:36:19;6.60;99.90
18291;DHT22;9271;48.590;8.866;2022-11-12T04:38:46;6.60;99.90
18291;DHT22;9271;48.590;8.866;2022-11-12T04:41:13;6.60;99.90
18291;DHT22;9271;48.590;8.866;2022-11-12T04:43:57;6.60;99.90
18291;DHT22;9271;48.590;8.866;2022-11-12T04:46:41;6.70;99.90
18291;DHT22;9271;48.590;8.866;2022-11-12T04:49:08;6.70;99.90
18291;DHT22;9271;48.590;8.866;2022-11-12T04:51:36;6.60;99.90
18291;DHT22;9271;48.590;8.866;2022-11-12T04:54:17;6.30;99.90
18291;DHT22;9271;48.590;8.866;2022-11-12T04:56:43;6.40;99.90
18291;DHT22;9271;48.590;8.866;2022-11-12T04:59:10;6.50;99.90
18291;DHT22;9271;48.590;8.866;2022-11-12T05:01:37;6.20;99.90
18291;DHT22;9271;48.590;8.866;2022-11-12T05:04:03;5.90;99.90
18291;DHT22;9271;48.590;8.866;2022-11-12T05:06:30;5.80;99.90
18291;DHT22;9271;48.590;8.866;2022-11-12T05:09:16;5.70;99.90
18291;DHT22;9271;48.590;8.866;2022-11-12T05:11:44;5.80;99.90
18291;DHT22;9271;48.590;8.866;2022-11-12T05:14:11;5.70;99.90
18291;DHT22;9271;48.590;8.866;2022-11-12T05:16:38;5.70;99.90
18291;DHT22;9271;48.590;8.866;2022-11-12T05:19:05;6.00;99.90
18291;DHT22;9271;48.590;8.866;2022-11-12T05:21:31;6.30;99.90
18291;DHT22;9271;48.590;8.866;2022-11-12T05:24:17;6.50;99.90
18291;DHT22;9271;48.590;8.866;2022-11-12T05:26:44;6.80;99.90
18291;DHT22;9271;48.590;8.866;2022-11-12T05:29:10;6.90;99.90
18291;DHT22;9271;48.590;8.866;2022-11-12T05:31:37;6.70;99.90
18291;DHT22;9271;48.590;8.866;2022-11-12T05:34:04;6.80;99.90
18291;DHT22;9271;48.590;8.866;2022-11-12T05:36:31;6.90;99.90
18291;DHT22;9271;48.590;8.866;2022-11-12T05:38:58;7.10;99.90
18291;DHT22;9271;48.590;8.866;2022-11-12T05:41:26;7.00;99.90
18291;DHT22;9271;48.590;8.866;2022-11-12T05:43:53;7.00;99.90
18291;DHT22;9271;48.590;8.866;2022-11-12T05:46:20;7.20;99.90
18291;DHT22;9271;48.590;8.866;2022-11-12T05:48:47;7.10;99.90
18291;DHT22;9271;48.590;8.866;2022-11-12T05:51:14;7.10;99.90
18291;DHT22;9271;48.590;8.866;2022-11-12T05:53:41;7.10;99.90
18291;DHT22;9271;48.590;8.866;2022-11-12T05:56:08;7.00;99.90
18291;DHT22;9271;48.590;8.866;2022-11-12T05:58:37;7.00;99.90
18291;DHT22;9271;48.590;8.866;2022-11-12T06:01:04;7.00;99.90
18291;DHT22;9271;48.590;8.866;2022-11-12T06:03:31;7.10;99.90
18291;DHT22;9271;48.590;8.866;2022-11-12T06:05:58;7.20;99.90
18291;DHT22;9271;48.590;8.866;2022-11-12T06:08:24;7.00;99.90
18291;DHT22;9271;48.590;8.866;2022-11-12T06:10:52;6.90;99.90
18291;DHT22;9271;48.590;8.866;2022-11-12T06:13:20;6.80;99.90
18291;DHT22;9271;48.590;8.866;2022-11-12T06:15:48;6.70;99.90
18291;DHT22;9271;48.590;8.866;2022-11-12T06:18:15;6.70;99.90
18291;DHT22;9271;48.590;8.866;2022-11-12T06:20:41;6.70;99.90
18291;DHT22;9271;48.590;8.866;2022-11-12T06:23:08;6.80;99.90
18291;DHT22;9271;48.590;8.866;2022-11-12T06:25:35;6.80;99.90
18291;DHT22;9271;48.590;8.866;2022-11-12T06:28:02;6.90;99.90
18291;DHT22;9271;48.590;8.866;2022-11-12T06:30:29;6.70;99.90
18291;DHT22;9271;48.590;8.866;2022-11-12T06:32:57;6.40;99.90
18291;DHT22;9271;48.590;8.866;2022-11-12T06:35:24;6.30;99.90
18291;DHT22;9271;48.590;8.866;2022-11-12T06:37:50;6.30;99.90
18291;DHT22;9271;48.590;8.866;2022-11-12T06:40:17;6.40;99.90
18291;DHT22;9271;48.590;8.866;2022-11-12T06:42:44;6.30;99.90
18291;DHT22;9271;48.590;8.866;2022-11-12T06:45:10;6.50;99.90
18291;DHT22;9271;48.590;8.866;2022-11-12T06:47:37;6.80;99.90
18291;DHT22;9271;48.590;8.866;2022-11-12T06:50:06;6.90;99.90
18291;DHT22;9271;48.590;8.866;2022-11-12T06:52:32;7.00;99.90
18291;DHT22;9271;48.590;8.866;2022-11-12T06:54:59;7.10;99.90
18291;DHT22;9271;48.590;8.866;2022-11-12T06:57:26;7.00;99.90
18291;DHT22;9271;48.590;8.866;2022-11-12T06:59:52;7.00;99.90
18291;DHT22;9271;48.590;8.866;2022-11-12T07:02:19;6.90;99.90
18291;DHT22;9271;48.590;8.866;2022-11-12T07:04:46;6.90;99.90
18291;DHT22;9271;48.590;8.866;2022-11-12T07:07:14;6.80;99.90
18291;DHT22;9271;48.590;8.866;2022-11-12T07:09:41;6.90;99.90
18291;DHT22;9271;48.590;8.866;2022-11-12T07:12:07;6.70;99.90
18291;DHT22;9271;48.590;8.866;2022-11-12T07:14:34;6.50;99.90
18291;DHT22;9271;48.590;8.866;2022-11-12T07:17:01;6.80;99.90
18291;DHT22;9271;48.590;8.866;2022-11-12T07:19:27;6.80;99.90
18291;DHT22;9271;48.590;8.866;2022-11-12T07:21:54;7.00;99.90
18291;DHT22;9271;48.590;8.866;2022-11-12T07:24:22;7.10;99.90
18291;DHT22;9271;48.590;8.866;2022-11-12T07:26:49;7.00;99.90
18291;DHT22;9271;48.590;8.866;2022-11-12T07:29:16;6.70;99.90
18291;DHT22;9271;48.590;8.866;2022-11-12T07:31:44;6.60;99.90
18291;DHT22;9271;48.590;8.866;2022-11-12T07:34:10;6.70;99.90
18291;DHT22;9271;48.590;8.866;2022-11-12T07:36:37;6.70;99.90
18291;DHT22;9271;48.590;8.866;2022-11-12T07:39:04;6.70;99.90
18291;DHT22;9271;48.590;8.866;2022-11-12T07:41:32;6.80;99.90
18291;DHT22;9271;48.590;8.866;2022-11-12T07:43:58;7.20;99.90
18291;DHT22;9271;48.590;8.866;2022-11-12T07:46:26;7.10;99.90
18291;DHT22;9271;48.590;8.866;2022-11-12T07:48:53;7.10;99.90
18291;DHT22;9271;48.590;8.866;2022-11-12T07:51:22;7.10;99.90
18291;DHT22;9271;48.590;8.866;2022-11-12T07:53:51;7.00;99.90
18291;DHT22;9271;48.590;8.866;2022-11-12T07:56:19;7.00;99.90
18291;DHT22;9271;48.590;8.866;2022-11-12T07:58:48;7.40;99.90
18291;DHT22;9271;48.590;8.866;2022-11-12T08:01:22;7.60;99.90
18291;DHT22;9271;48.590;8.866;2022-11-12T08:03:49;7.80;99.90
18291;DHT22;9271;48.590;8.866;2022-11-12T08:06:16;7.70;99.90
18291;DHT22;9271;48.590;8.866;2022-11-12T08:08:43;7.80;99.90
18291;DHT22;9271;48.590;8.866;2022-11-12T08:11:09;7.80;99.90
18291;DHT22;9271;48.590;8.866;2022-11-12T08:13:36;7.70;99.90
18291;DHT22;9271;48.590;8.866;2022-11-12T08:16:05;8.10;99.90
18291;DHT22;9271;48.590;8.866;2022-11-12T08:18:31;8.20;99.90
18291;DHT22;9271;48.590;8.866;2022-11-12T08:20:59;8.40;99.90
18291;DHT22;9271;48.590;8.866;2022-11-12T08:23:26;8.50;99.90
18291;DHT22;9271;48.590;8.866;2022-11-12T08:25:56;8.40;99.90
18291;DHT22;9271;48.590;8.866;2022-11-12T08:28:23;8.40;99.90
18291;DHT22;9271;48.590;8.866;2022-11-12T08:30:50;8.50;99.90
18291;DHT22;9271;48.590;8.866;2022-11-12T08:33:18;8.30;99.90
18291;DHT22;9271;48.590;8.866;2022-11-12T08:35:45;8.40;99.90
18291;DHT22;9271;48.590;8.866;2022-11-12T08:38:11;8.50;99.90
18291;DHT22;9271;48.590;8.866;2022-11-12T08:40:39;8.30;99.90
18291;DHT22;9271;48.590;8.866;2022-11-12T08:43:08;8.50;99.90
18291;DHT22;9271;48.590;8.866;2022-11-12T08:45:38;8.60;99.90
18291;DHT22;9271;48.590;8.866;2022-11-12T08:48:06;8.70;99.90
18291;DHT22;9271;48.590;8.866;2022-11-12T08:50:36;8.90;99.90
18291;DHT22;9271;48.590;8.866;2022-11-12T08:53:04;8.80;99.90
18291;DHT22;9271;48.590;8.866;2022-11-12T08:55:32;8.90;99.90
18291;DHT22;9271;48.590;8.866;2022-11-12T08:57:59;8.90;99.90
18291;DHT22;9271;48.590;8.866;2022-11-12T09:00:27;9.10;99.90
18291;DHT22;9271;48.590;8.866;2022-11-12T09:02:54;9.10;99.90
18291;DHT22;9271;48.590;8.866;2022-11-12T09:05:21;9.30;99.90
18291;DHT22;9271;48.590;8.866;2022-11-12T09:07:55;9.00;99.90
18291;DHT22;9271;48.590;8.866;2022-11-12T09:10:22;8.90;99.90
18291;DHT22;9271;48.590;8.866;2022-11-12T09:12:49;9.10;99.90
18291;DHT22;9271;48.590;8.866;2022-11-12T09:15:16;9.10;99.90
18291;DHT22;9271;48.590;8.866;2022-11-12T09:17:43;9.50;99.90
18291;DHT22;9271;48.590;8.866;2022-11-12T09:20:10;9.50;99.90
18291;DHT22;9271;48.590;8.866;2022-11-12T09:22:37;9.80;99.90
18291;DHT22;9271;48.590;8.866;2022-11-12T09:25:06;10.40;99.90
18291;DHT22;9271;48.590;8.866;2022-11-12T09:27:33;10.90;99.90
18291;DHT22;9271;48.590;8.866;2022-11-12T09:29:59;11.20;99.90
18291;DHT22;9271;48.590;8.866;2022-11-12T09:32:26;11.40;98.90
18291;DHT22;9271;48.590;8.866;2022-11-12T09:34:53;11.80;99.20
18291;DHT22;9271;48.590;8.866;2022-11-12T09:37:20;12.20;98.10
18291;DHT22;9271;48.590;8.866;2022-11-12T09:39:47;11.80;97.50
18291;DHT22;9271;48.590;8.866;2022-11-12T09:42:17;12.10;98.10
18291;DHT22;9271;48.590;8.866;2022-11-12T09:44:49;12.40;97.30
18291;DHT22;9271;48.590;8.866;2022-11-12T09:47:23;12.80;97.40
18291;DHT22;9271;48.590;8.866;2022-11-12T09:49:58;13.10;96.50
18291;DHT22;9271;48.590;8.866;2022-11-12T09:52:28;13.50;95.90
18291;DHT22;9271;48.590;8.866;2022-11-12T09:55:01;13.40;95.40
18291;DHT22;9271;48.590;8.866;2022-11-12T09:57:32;14.10;95.40
18291;DHT22;9271;48.590;8.866;2022-11-12T09:59:59;15.30;94.60
18291;DHT22;9271;48.590;8.866;2022-11-12T10:02:34;16.30;92.80
18291;DHT22;9271;48.590;8.866;2022-11-12T10:05:12;17.60;90.00
18291;DHT22;9271;48.590;8.866;2022-11-12T10:07:55;18.40;88.60
18291;DHT22;9271;48.590;8.866;2022-11-12T10:10:33;20.10;83.80
18291;DHT22;9271;48.590;8.866;2022-11-12T10:13:18;20.90;78.50
18291;DHT22;9271;48.590;8.866;2022-11-12T10:15:58;20.90;77.00
18291;DHT22;9271;48.590;8.866;2022-11-12T10:18:57;21.50;75.50
18291;DHT22;9271;48.590;8.866;2022-11-12T10:21:34;23.50;68.70
18291;DHT22;9271;48.590;8.866;2022-11-12T10:24:05;25.60;61.50
18291;DHT22;9271;48.590;8.866;2022-11-12T10:26:33;25.80;57.30
18291;DHT22;9271;48.590;8.866;2022-11-12T10:29:07;25.80;56.30
18291;DHT22;9271;48.590;8.866;2022-11-12T10:31:38;24.50;58.00
18291;DHT22;9271;48.590;8.866;2022-11-12T10:34:14;25.00;58.10
18291;DHT22;9271;48.590;8.866;2022-11-12T10:36:43;26.00;55.50
18291;DHT22;9271;48.590;8.866;2022-11-12T10:39:30;25.80;54.90
18291;DHT22;9271;48.590;8.866;2022-11-12T10:42:05;25.20;55.30
18291;DHT22;9271;48.590;8.866;2022-11-12T10:44:33;25.40;54.80
18291;DHT22;9271;48.590;8.866;2022-11-12T10:47:22;25.40;54.40
18291;DHT22;9271;48.590;8.866;2022-11-12T10:50:03;26.10;51.80
18291;DHT22;9271;48.590;8.866;2022-11-12T10:52:30;26.20;52.20
18291;DHT22;9271;48.590;8.866;2022-11-12T10:55:12;26.20;51.80
18291;DHT22;9271;48.590;8.866;2022-11-12T10:57:40;26.10;51.70
18291;DHT22;9271;48.590;8.866;2022-11-12T11:00:16;25.20;53.50
18291;DHT22;9271;48.590;8.866;2022-11-12T11:02:47;25.40;52.00
18291;DHT22;9271;48.590;8.866;2022-11-12T11:05:30;26.10;53.00
18291;DHT22;9271;48.590;8.866;2022-11-12T11:07:57;25.50;51.80
18291;DHT22;9271;48.590;8.866;2022-11-12T11:10:26;25.50;52.50
18291;DHT22;9271;48.590;8.866;2022-11-12T11:13:18;25.70;51.60
18291;DHT22;9271;48.590;8.866;2022-11-12T11:15:59;25.30;53.00
18291;DHT22;9271;48.590;8.866;2022-11-12T11:18:26;25.10;53.70
18291;DHT22;9271;48.590;8.866;2022-11-12T11:21:02;25.20;53.00
18291;DHT22;9271;48.590;8.866;2022-11-12T11:23:34;25.90;51.60
18291;DHT22;9271;48.590;8.866;2022-11-12T11:26:14;25.20;52.40
18291;DHT22;9271;48.590;8.866;2022-11-12T11:28:47;25.00;52.10
18291;DHT22;9271;48.590;8.866;2022-11-12T11:31:28;24.10;54.20
18291;DHT22;9271;48.590;8.866;2022-11-12T11:34:09;23.80;55.00
18291;DHT22;9271;48.590;8.866;2022-11-12T11:36:44;24.30;54.30
18291;DHT22;9271;48.590;8.866;2022-11-12T11:39:17;24.50;55.30
18291;DHT22;9271;48.590;8.866;2022-11-12T11:41:56;24.70;54.10
18291;DHT22;9271;48.590;8.866;2022-11-12T11:44:35;25.10;53.60
18291;DHT22;9271;48.590;8.866;2022-11-12T11:47:14;25.00;53.80
18291;DHT22;9271;48.590;8.866;2022-11-12T11:50:11;25.60;52.90
18291;DHT22;9271;48.590;8.866;2022-11-12T11:52:48;26.00;52.20
18291;DHT22;9271;48.590;8.866;2022-11-12T11:55:30;25.70;51.70
18291;DHT22;9271;48.590;8.866;2022-11-12T11:58:05;25.20;52.80
18291;DHT22;9271;48.590;8.866;2022-11-12T12:00:44;25.30;53.10
18291;DHT22;9271;48.590;8.866;2022-11-12T12:03:20;25.40;53.20
18291;DHT22;9271;48.590;8.866;2022-11-12T12:06:06;25.90;51.20
18291;DHT22;9271;48.590;8.866;2022-11-12T12:08:43;26.20;52.20
18291;DHT22;9271;48.590;8.866;2022-11-12T12:11:16;25.40;52.30
18291;DHT22;9271;48.590;8.866;2022-11-12T12:13:54;25.20;53.10
18291;DHT22;9271;48.590;8.866;2022-11-12T12:16:35;24.40;54.00
18291;DHT22;9271;48.590;8.866;2022-11-12T12:19:10;24.40;54.20
18291;DHT22;9271;48.590;8.866;2022-11-12T12:21:43;24.70;54.00
18291;DHT22;9271;48.590;8.866;2022-11-12T12:24:16;24.70;54.10
18291;DHT22;9271;48.590;8.866;2022-11-12T12:26:47;24.40;55.30
18291;DHT22;9271;48.590;8.866;2022-11-12T12:29:17;24.00;55.30
18291;DHT22;9271;48.590;8.866;2022-11-12T12:31:47;23.20;56.30
18291;DHT22;9271;48.590;8.866;2022-11-12T12:34:20;23.00;57.30
18291;DHT22;9271;48.590;8.866;2022-11-12T12:36:52;22.90;57.70
18291;DHT22;9271;48.590;8.866;2022-11-12T12:39:24;22.70;58.40
18291;DHT22;9271;48.590;8.866;2022-11-12T12:41:55;22.30;60.50
18291;DHT22;9271;48.590;8.866;2022-11-12T12:44:23;22.00;60.60
18291;DHT22;9271;48.590;8.866;2022-11-12T12:47:13;22.00;59.50
18291;DHT22;9271;48.590;8.866;2022-11-12T12:49:42;21.00;62.60
18291;DHT22;9271;48.590;8.866;2022-11-12T12:52:11;21.70;61.90
18291;DHT22;9271;48.590;8.866;2022-11-12T12:54:55;22.10;61.30
18291;DHT22;9271;48.590;8.866;2022-11-12T12:57:31;22.60;60.30
18291;DHT22;9271;48.590;8.866;2022-11-12T13:00:25;22.80;58.90
18291;DHT22;9271;48.590;8.866;2022-11-12T13:02:54;23.00;58.90
18291;DHT22;9271;48.590;8.866;2022-11-12T13:05:25;22.80;59.70
18291;DHT22;9271;48.590;8.866;2022-11-12T13:07:53;22.40;60.90
18291;DHT22;9271;48.590;8.866;2022-11-12T13:10:52;22.00;60.70
18291;DHT22;9271;48.590;8.866;2022-11-12T13:13:28;20.60;65.20
18291;DHT22;9271;48.590;8.866;2022-11-12T13:15:57;20.50;65.70
18291;DHT22;9271;48.590;8.866;2022-11-12T13:18:55;20.80;65.70
18291;DHT22;9271;48.590;8.866;2022-11-12T13:21:24;21.10;64.70
18291;DHT22;9271;48.590;8.866;2022-11-12T13:23:52;21.00;65.40
18291;DHT22;9271;48.590;8.866;2022-11-12T13:26:47;20.70;67.40
18291;DHT22;9271;48.590;8.866;2022-11-12T13:29:21;20.60;65.60
18291;DHT22;9271;48.590;8.866;2022-11-12T13:31:49;20.10;67.70
18291;DHT22;9271;48.590;8.866;2022-11-12T13:34:21;19.70;69.10
18291;DHT22;9271;48.590;8.866;2022-11-12T13:36:57;19.40;69.60
18291;DHT22;9271;48.590;8.866;2022-11-12T13:39:26;18.90;70.40
18291;DHT22;9271;48.590;8.866;2022-11-12T13:41:56;18.90;71.40
18291;DHT22;9271;48.590;8.866;2022-11-12T13:44:40;18.60;74.10
18291;DHT22;9271;48.590;8.866;2022-11-12T13:47:11;18.10;75.50
18291;DHT22;9271;48.590;8.866;2022-11-12T13:49:38;18.00;76.70
18291;DHT22;9271;48.590;8.866;2022-11-12T13:52:07;17.70;75.40
18291;DHT22;9271;48.590;8.866;2022-11-12T13:54:36;17.40;76.90
18291;DHT22;9271;48.590;8.866;2022-11-12T13:57:28;17.00;78.70
18291;DHT22;9271;48.590;8.866;2022-11-12T14:02:54;16.20;83.10
18291;DHT22;9271;48.590;8.866;2022-11-12T14:05:24;16.00;84.60
18291;DHT22;9271;48.590;8.866;2022-11-12T14:08:05;15.80;85.70
18291;DHT22;9271;48.590;8.866;2022-11-12T14:10:39;15.90;86.20
18291;DHT22;9271;48.590;8.866;2022-11-12T14:13:32;15.90;87.30
18291;DHT22;9271;48.590;8.866;2022-11-12T14:16:15;15.80;87.90
18291;DHT22;9271;48.590;8.866;2022-11-12T14:19:05;15.90;89.30
18291;DHT22;9271;48.590;8.866;2022-11-12T14:21:34;15.90;88.70
18291;DHT22;9271;48.590;8.866;2022-11-12T14:24:02;15.90;89.80
18291;DHT22;9271;48.590;8.866;2022-11-12T14:26:34;16.00;89.40
18291;DHT22;9271;48.590;8.866;2022-11-12T14:29:01;15.80;89.80
18291;DHT22;9271;48.590;8.866;2022-11-12T14:31:28;15.70;90.50
18291;DHT22;9271;48.590;8.866;2022-11-12T14:33:55;15.70;90.60
18291;DHT22;9271;48.590;8.866;2022-11-12T14:36:22;15.40;91.10
18291;DHT22;9271;48.590;8.866;2022-11-12T14:38:50;15.40;91.30
18291;DHT22;9271;48.590;8.866;2022-11-12T14:41:22;15.30;91.60
18291;DHT22;9271;48.590;8.866;2022-11-12T14:43:50;15.40;91.70
18291;DHT22;9271;48.590;8.866;2022-11-12T14:46:22;15.10;92.10
18291;DHT22;9271;48.590;8.866;2022-11-12T14:48:53;14.90;92.70
18291;DHT22;9271;48.590;8.866;2022-11-12T14:51:24;14.70;93.40
18291;DHT22;9271;48.590;8.866;2022-11-12T14:53:54;14.70;93.60
18291;DHT22;9271;48.590;8.866;2022-11-12T14:56:27;14.90;93.40
18291;DHT22;9271;48.590;8.866;2022-11-12T14:58:56;15.00;93.60
18291;DHT22;9271;48.590;8.866;2022-11-12T15:01:25;15.00;93.50
18291;DHT22;9271;48.590;8.866;2022-11-12T15:04:03;14.80;94.10
18291;DHT22;9271;48.590;8.866;2022-11-12T15:06:31;14.70;94.80
18291;DHT22;9271;48.590;8.866;2022-11-12T15:08:59;14.60;94.60
18291;DHT22;9271;48.590;8.866;2022-11-12T15:11:29;14.50;94.90
18291;DHT22;9271;48.590;8.866;2022-11-12T15:14:00;14.50;95.00
18291;DHT22;9271;48.590;8.866;2022-11-12T15:16:31;14.40;95.30
18291;DHT22;9271;48.590;8.866;2022-11-12T15:19:17;14.20;95.60
18291;DHT22;9271;48.590;8.866;2022-11-12T15:21:47;13.80;95.90
18291;DHT22;9271;48.590;8.866;2022-11-12T15:24:19;13.40;97.10
18291;DHT22;9271;48.590;8.866;2022-11-12T15:26:52;13.30;97.70
18291;DHT22;9271;48.590;8.866;2022-11-12T15:29:28;13.30;97.50
18291;DHT22;9271;48.590;8.866;2022-11-12T15:31:58;13.10;98.50
18291;DHT22;9271;48.590;8.866;2022-11-12T15:34:27;13.30;98.10
18291;DHT22;9271;48.590;8.866;2022-11-12T15:36:56;13.20;98.40
18291;DHT22;9271;48.590;8.866;2022-11-12T15:39:25;13.00;98.90
18291;DHT22;9271;48.590;8.866;2022-11-12T15:41:58;12.90;99.00
18291;DHT22;9271;48.590;8.866;2022-11-12T15:44:27;12.80;99.20
18291;DHT22;9271;48.590;8.866;2022-11-12T15:46:56;12.90;99.00
18291;DHT22;9271;48.590;8.866;2022-11-12T15:49:23;12.80;99.10
18291;DHT22;9271;48.590;8.866;2022-11-12T15:51:50;12.60;99.40
18291;DHT22;9271;48.590;8.866;2022-11-12T15:54:17;12.50;99.70
18291;DHT22;9271;48.590;8.866;2022-11-12T15:56:44;12.40;99.90
18291;DHT22;9271;48.590;8.866;2022-11-12T15:59:14;12.30;99.90
18291;DHT22;9271;48.590;8.866;2022-11-12T16:01:42;12.20;99.90
18291;DHT22;9271;48.590;8.866;2022-11-12T16:04:09;12.10;99.90
18291;DHT22;9271;48.590;8.866;2022-11-12T16:06:36;11.90;99.90
18291;DHT22;9271;48.590;8.866;2022-11-12T16:09:03;11.80;99.90
18291;DHT22;9271;48.590;8.866;2022-11-12T16:11:30;11.70;99.90
18291;DHT22;9271;48.590;8.866;2022-11-12T16:14:05;11.50;99.90
18291;DHT22;9271;48.590;8.866;2022-11-12T16:16:33;11.50;99.90
18291;DHT22;9271;48.590;8.866;2022-11-12T16:19:00;11.30;99.90